Time;durP1;ratioP1;P1;durP2;ratioP2;P2;SDS_P1;SDS_P2;PMS_P1;PMS_P2;Temp;Humidity;BMP_temperature;BMP_pressure;BME280_temperature;BME280_humidity;BME280_pressure;Samples;Min_cycle;Max_cycle;Signal;HPM_P1;HPM_P2
2023/09/23 00:00:55;;;;;;;0.00;0.00;;;;;;;7.82;100.00;99844.81;4847912;29;20030;-75
2023/09/23 00:03:23;;;;;;;0.10;0.10;;;;;;;7.80;100.00;99831.47;4843853;29;20061;-74
2023/09/23 00:05:49;;;;;;;0.00;0.00;;;;;;;7.91;100.00;99854.09;4843459;29;20025;-74
2023/09/23 00:08:14;;;;;;;0.10;0.10;;;;;;;7.93;100.00;99851.13;4844617;29;20072;-75
2023/09/23 00:10:39;;;;;;;0.00;0.00;;;;;;;7.93;100.00;99862.00;4842396;29;20489;-74
2023/09/23 00:13:05;;;;;;;0.00;0.00;;;;;;;7.93;100.00;99848.41;4847749;29;20045;-75
2023/09/23 00:15:31;;;;;;;0.00;0.00;;;;;;;7.91;100.00;99847.84;4816226;29;20029;-74
2023/09/23 00:17:57;;;;;;;0.00;0.00;;;;;;;7.80;100.00;99838.81;4831327;29;20026;-74
2023/09/23 00:20:23;;;;;;;0.00;0.00;;;;;;;7.85;100.00;99852.44;4845124;29;20481;-75
2023/09/23 00:22:50;;;;;;;0.00;0.00;;;;;;;7.77;100.00;99850.19;4824145;29;20046;-75
2023/09/23 00:25:18;;;;;;;0.00;0.00;;;;;;;7.74;100.00;99848.00;4848219;29;20033;-75
2023/09/23 00:27:45;;;;;;;0.00;0.00;;;;;;;7.68;100.00;99852.59;4819929;29;20480;-75
2023/09/23 00:30:12;;;;;;;0.00;0.00;;;;;;;7.66;100.00;99849.31;4816694;29;20029;-75
2023/09/23 00:32:44;;;;;;;0.00;0.00;;;;;;;7.69;100.00;99862.41;4810709;29;20056;-75
2023/09/23 00:35:12;;;;;;;0.00;0.00;;;;;;;7.67;100.00;99853.69;4816558;29;20037;-74
2023/09/23 00:37:40;;;;;;;0.00;0.00;;;;;;;7.65;100.00;99861.28;4840425;29;20038;-75
2023/09/23 00:40:13;;;;;;;0.10;0.10;;;;;;;7.64;100.00;99859.66;4816787;29;20026;-75
2023/09/23 00:42:38;;;;;;;0.00;0.00;;;;;;;7.53;100.00;99853.28;4834070;29;20034;-75
2023/09/23 00:45:04;;;;;;;0.00;0.00;;;;;;;7.54;100.00;99854.13;4825161;29;20032;-74
2023/09/23 00:47:31;;;;;;;0.00;0.00;;;;;;;7.46;100.00;99853.53;4834025;29;20026;-75
2023/09/23 00:50:22;;;;;;;0.00;0.00;;;;;;;7.42;100.00;99852.41;4826908;29;20042;-75
2023/09/23 00:52:53;;;;;;;0.10;0.10;;;;;;;7.40;100.00;99851.81;4838001;29;20034;-74
2023/09/23 00:55:24;;;;;;;0.10;0.10;;;;;;;7.49;100.00;99863.03;4826410;29;20118;-75
2023/09/23 00:57:55;;;;;;;0.00;0.00;;;;;;;7.48;100.00;99869.59;4841195;29;20018;-74
2023/09/23 01:00:24;;;;;;;0.08;0.08;;;;;;;7.41;100.00;99861.63;4822156;29;20096;-74
2023/09/23 01:02:50;;;;;;;0.10;0.10;;;;;;;7.37;100.00;99871.38;4830234;29;20034;-75
2023/09/23 01:05:19;;;;;;;0.00;0.00;;;;;;;7.29;100.00;99869.97;4848906;29;20847;-74
2023/09/23 01:07:46;;;;;;;0.10;0.10;;;;;;;7.36;100.00;99879.78;4826008;29;20094;-74
2023/09/23 01:10:12;;;;;;;0.00;0.00;;;;;;;7.37;100.00;99881.44;4814600;29;20038;-74
2023/09/23 01:12:54;;;;;;;;;;;;;;;;;;;;;
2023/09/23 01:15:25;;;;;;;0.00;0.00;;;;;;;7.33;100.00;99881.16;4837987;29;20037;-74
2023/09/23 01:17:53;;;;;;;0.00;0.00;;;;;;;7.33;100.00;99884.69;4830321;29;20045;-73
2023/09/23 01:20:20;;;;;;;0.00;0.00;;;;;;;7.32;100.00;99890.38;4826782;29;20483;-74
2023/09/23 01:22:48;;;;;;;0.00;0.00;;;;;;;7.31;100.00;99894.19;4826487;29;20125;-74
2023/09/23 01:25:14;;;;;;;0.00;0.00;;;;;;;7.25;100.00;99896.03;4839388;29;20029;-73
2023/09/23 01:27:40;;;;;;;0.10;0.10;;;;;;;7.25;100.00;99903.38;4809465;29;20038;-74
2023/09/23 01:30:07;;;;;;;0.00;0.00;;;;;;;7.24;100.00;99904.44;4839995;29;20034;-74
2023/09/23 01:32:42;;;;;;;0.10;0.10;;;;;;;7.22;100.00;99903.88;4820941;29;20045;-74
2023/09/23 01:35:09;;;;;;;0.00;0.00;;;;;;;7.20;100.00;99906.88;4840708;29;20032;-73
2023/09/23 01:37:35;;;;;;;0.00;0.00;;;;;;;7.18;100.00;99911.72;4834496;29;20033;-73
2023/09/23 01:40:01;;;;;;;0.00;0.00;;;;;;;7.20;100.00;99914.19;4797824;29;20116;-73
2023/09/23 01:42:28;;;;;;;0.00;0.00;;;;;;;7.23;100.00;99924.53;4819670;29;20483;-74
2023/09/23 01:44:54;;;;;;;0.10;0.10;;;;;;;7.23;100.00;99930.81;4842512;29;20484;-73
2023/09/23 01:47:21;;;;;;;0.00;0.00;;;;;;;7.26;100.00;99937.66;4824722;29;20041;-74
2023/09/23 01:49:47;;;;;;;0.00;0.00;;;;;;;7.09;100.00;99913.25;4841023;29;20921;-72
2023/09/23 01:52:15;;;;;;;0.00;0.00;;;;;;;7.20;100.00;99933.22;4831147;29;20044;-73
2023/09/23 01:54:40;;;;;;;0.10;0.10;;;;;;;7.14;100.00;99930.47;4834723;29;20037;-73
2023/09/23 01:57:06;;;;;;;0.10;0.10;;;;;;;7.18;100.00;99935.38;4818689;29;20033;-74
2023/09/23 01:59:32;;;;;;;0.10;0.10;;;;;;;7.21;100.00;99945.75;4816856;29;20497;-73
2023/09/23 02:01:59;;;;;;;0.10;0.10;;;;;;;7.06;100.00;99928.19;4819460;29;20951;-73
2023/09/23 02:04:25;;;;;;;0.00;0.00;;;;;;;7.12;100.00;99946.19;4829451;29;20034;-72
2023/09/23 02:06:51;;;;;;;0.00;0.00;;;;;;;7.09;100.00;99952.13;4802375;29;20550;-72
2023/09/23 02:09:17;;;;;;;0.00;0.00;;;;;;;7.06;100.00;99949.94;4812961;29;20037;-72
2023/09/23 02:11:49;;;;;;;0.10;0.10;;;;;;;7.01;100.00;99955.31;4839013;29;20098;-72
2023/09/23 02:14:15;;;;;;;0.00;0.00;;;;;;;7.01;100.00;99960.75;4809718;29;20040;-74
2023/09/23 02:16:42;;;;;;;0.00;0.00;;;;;;;6.98;100.00;99961.28;4832439;29;20431;-73
2023/09/23 02:19:07;;;;;;;0.00;0.00;;;;;;;6.93;100.00;99972.88;4842188;29;20036;-74
2023/09/23 02:21:33;;;;;;;0.00;0.00;;;;;;;6.88;100.00;99967.41;4816677;29;20548;-73
2023/09/23 02:23:58;;;;;;;0.00;0.00;;;;;;;6.90;100.00;99975.31;4826716;29;20029;-73
2023/09/23 02:26:24;;;;;;;0.00;0.00;;;;;;;6.90;100.00;99980.75;4835698;29;20435;-73
2023/09/23 02:28:49;;;;;;;0.00;0.00;;;;;;;6.91;100.00;99987.81;4842197;29;20052;-73
2023/09/23 02:31:16;;;;;;;0.00;0.00;;;;;;;6.90;100.00;99986.16;4845309;29;20098;-74
2023/09/23 02:33:43;;;;;;;0.00;0.00;;;;;;;6.95;100.00;99986.22;4843870;29;20430;-74
2023/09/23 02:36:08;;;;;;;0.00;0.00;;;;;;;6.95;100.00;99983.50;4840725;29;20114;-72
2023/09/23 02:38:34;;;;;;;0.00;0.00;;;;;;;6.99;100.00;99995.53;4846470;29;20022;-74
2023/09/23 02:41:08;;;;;;;0.10;0.10;;;;;;;6.96;100.00;99996.84;4839919;29;20469;-73
2023/09/23 02:43:34;;;;;;;0.00;0.00;;;;;;;6.93;100.00;100001.97;4845669;29;20049;-74
2023/09/23 02:46:00;;;;;;;0.00;0.00;;;;;;;6.91;100.00;100004.13;4833704;29;20038;-73
2023/09/23 02:48:28;;;;;;;0.08;0.08;;;;;;;6.88;100.00;99997.28;4840084;29;20048;-73
2023/09/23 02:50:57;;;;;;;0.00;0.00;;;;;;;6.88;100.00;99999.19;4838375;29;20102;-71
2023/09/23 02:53:23;;;;;;;0.00;0.00;;;;;;;6.87;100.00;99992.13;4835289;29;20051;-74
2023/09/23 02:55:52;;;;;;;0.00;0.00;;;;;;;6.90;100.00;99994.31;4834176;29;20042;-74
2023/09/23 02:58:23;;;;;;;0.00;0.00;;;;;;;6.90;100.00;99989.69;4810426;29;20037;-73
2023/09/23 03:00:57;;;;;;;0.00;0.00;;;;;;;6.92;100.00;99998.44;4834370;29;20533;-73
2023/09/23 03:03:24;;;;;;;0.00;0.00;;;;;;;6.87;100.00;99992.94;4832279;29;20045;-73
2023/09/23 03:06:02;;;;;;;0.00;0.00;;;;;;;6.92;100.00;100005.75;4815599;29;20034;-73
2023/09/23 03:08:29;;;;;;;0.00;0.00;;;;;;;6.90;100.00;100007.91;4827342;29;20427;-72
2023/09/23 03:10:59;;;;;;;0.00;0.00;;;;;;;6.86;100.00;100020.38;4839049;29;20034;-72
2023/09/23 03:13:25;;;;;;;0.00;0.00;;;;;;;6.76;100.00;100013.72;4824992;29;20058;-72
2023/09/23 03:15:53;;;;;;;0.00;0.00;;;;;;;6.73;100.00;100025.09;4820944;29;20077;-73
2023/09/23 03:18:33;;;;;;;0.00;0.00;;;;;;;6.71;100.00;100024.50;4841642;29;20042;-72
2023/09/23 03:21:08;;;;;;;0.00;0.00;;;;;;;6.64;100.00;100032.00;4837501;29;20034;-72
2023/09/23 03:23:35;;;;;;;0.00;0.00;;;;;;;6.62;100.00;100028.75;4835542;29;20033;-72
2023/09/23 03:26:01;;;;;;;0.00;0.00;;;;;;;6.60;100.00;100039.00;4822424;29;20041;-72
2023/09/23 03:28:26;;;;;;;0.00;0.00;;;;;;;6.60;100.00;100036.28;4846743;29;20085;-73
2023/09/23 03:30:59;;;;;;;0.00;0.00;;;;;;;6.57;100.00;100036.78;4839337;29;20033;-71
2023/09/23 03:33:25;;;;;;;0.00;0.00;;;;;;;6.56;100.00;100035.97;4839677;29;20052;-72
2023/09/23 03:35:50;;;;;;;0.00;0.00;;;;;;;6.56;100.00;100029.75;4809645;29;21631;-72
2023/09/23 03:38:16;;;;;;;0.00;0.00;;;;;;;6.52;100.00;100034.03;4839433;29;20148;-71
2023/09/23 03:40:50;;;;;;;0.00;0.00;;;;;;;6.50;100.00;100025.28;4840388;29;20087;-72
2023/09/23 03:43:15;;;;;;;0.00;0.00;;;;;;;6.52;100.00;100023.97;4838072;29;20089;-72
2023/09/23 03:45:41;;;;;;;0.00;0.00;;;;;;;6.56;100.00;100032.47;4835684;29;20050;-72
2023/09/23 03:48:06;;;;;;;0.00;0.00;;;;;;;6.60;100.00;100047.16;4830379;29;20034;-76
2023/09/23 03:50:32;;;;;;;0.00;0.00;;;;;;;6.57;100.00;100047.66;4846420;29;20034;-75
2023/09/23 03:52:58;;;;;;;0.00;0.00;;;;;;;6.55;100.00;100055.25;4836534;29;20037;-76
2023/09/23 03:55:24;;;;;;;0.00;0.00;;;;;;;6.54;100.00;100059.88;4840525;29;20033;-76
2023/09/23 03:57:50;;;;;;;0.00;0.00;;;;;;;6.42;100.00;100046.34;4840745;29;20116;-75
2023/09/23 04:00:18;;;;;;;0.00;0.00;;;;;;;6.45;100.00;100056.75;4835770;29;20136;-76
2023/09/23 04:02:50;;;;;;;0.00;0.00;;;;;;;6.39;100.00;100049.56;4844903;29;20033;-75
2023/09/23 04:05:16;;;;;;;0.00;0.00;;;;;;;6.44;100.00;100060.53;4845921;29;20030;-75
2023/09/23 04:07:51;;;;;;;0.00;0.00;;;;;;;6.46;100.00;100068.44;4849034;29;20056;-75
2023/09/23 04:10:23;;;;;;;0.00;0.00;;;;;;;6.43;100.00;100069.75;4841429;29;20033;-75
2023/09/23 04:12:49;;;;;;;0.00;0.00;;;;;;;6.41;100.00;100069.16;4817402;29;20040;-74
2023/09/23 04:15:15;;;;;;;0.00;0.00;;;;;;;6.42;100.00;100067.28;4832680;29;20029;-76
2023/09/23 04:17:41;;;;;;;0.00;0.00;;;;;;;6.39;100.00;100074.00;4832192;29;20061;-75
2023/09/23 04:20:10;;;;;;;0.05;0.05;;;;;;;6.38;100.00;100077.81;4840692;29;20038;-74
2023/09/23 04:22:37;;;;;;;0.00;0.00;;;;;;;6.39;100.00;100074.00;4845502;29;20497;-75
2023/09/23 04:25:06;;;;;;;0.00;0.00;;;;;;;6.36;100.00;100088.09;4837190;29;20117;-74
2023/09/23 04:27:39;;;;;;;0.00;0.00;;;;;;;6.35;100.00;100089.19;4840523;29;20034;-74
2023/09/23 04:30:09;;;;;;;0.03;0.03;;;;;;;6.31;100.00;100098.03;4836718;29;20033;-74
2023/09/23 04:32:42;;;;;;;0.00;0.00;;;;;;;6.27;100.00;100098.53;4846602;29;20093;-74
2023/09/23 04:35:15;;;;;;;0.10;0.10;;;;;;;6.28;100.00;100099.38;4847937;29;20174;-76
2023/09/23 04:37:40;;;;;;;0.10;0.10;;;;;;;6.22;100.00;100087.59;4850026;29;20074;-75
2023/09/23 04:40:11;;;;;;;0.00;0.00;;;;;;;6.22;100.00;100100.34;4827264;29;20040;-75
2023/09/23 04:42:41;;;;;;;0.00;0.00;;;;;;;6.16;100.00;100102.13;4843106;29;20030;-75
2023/09/23 04:45:08;;;;;;;0.00;0.00;;;;;;;6.19;100.00;100100.81;4848747;29;20037;-75
2023/09/23 04:47:36;;;;;;;0.00;0.00;;;;;;;6.15;100.00;100094.22;4837883;29;20112;-75
2023/09/23 04:50:04;;;;;;;0.00;0.00;;;;;;;6.11;100.00;100102.06;4846502;29;20046;-75
2023/09/23 04:52:33;;;;;;;0.00;0.00;;;;;;;6.03;100.00;100097.84;4834799;29;20434;-75
2023/09/23 04:54:58;;;;;;;0.10;0.10;;;;;;;5.99;100.00;100096.69;4831250;29;20034;-75
2023/09/23 04:57:24;;;;;;;0.00;0.00;;;;;;;5.97;100.00;100104.22;4825125;29;20026;-74
2023/09/23 04:59:51;;;;;;;0.00;0.00;;;;;;;5.91;100.00;100094.31;4847826;29;20597;-74
2023/09/23 05:02:17;;;;;;;0.00;0.00;;;;;;;5.92;100.00;100104.13;4818910;29;20030;-74
2023/09/23 05:04:45;;;;;;;0.00;0.00;;;;;;;5.87;100.00;100104.00;4840144;29;20041;-75
2023/09/23 05:07:18;;;;;;;0.10;0.10;;;;;;;5.86;100.00;100118.66;4859051;29;20434;-75
2023/09/23 05:09:45;;;;;;;0.10;0.10;;;;;;;5.81;100.00;100118.56;4838855;29;20041;-75
2023/09/23 05:12:11;;;;;;;0.00;0.00;;;;;;;5.79;100.00;100118.00;4829909;29;20125;-75
2023/09/23 05:14:36;;;;;;;0.00;0.00;;;;;;;5.84;100.00;100131.63;4834381;29;20042;-75
2023/09/23 05:17:05;;;;;;;0.00;0.00;;;;;;;5.81;100.00;100126.69;4846597;29;20053;-75
2023/09/23 05:19:33;;;;;;;0.00;0.00;;;;;;;5.79;100.00;100128.84;4838894;29;20104;-76
2023/09/23 05:21:59;;;;;;;0.00;0.00;;;;;;;5.79;100.00;100137.00;4834970;29;20033;-75
2023/09/23 05:24:28;;;;;;;0.00;0.00;;;;;;;5.78;100.00;100133.44;4837217;29;20033;-74
2023/09/23 05:26:55;;;;;;;0.10;0.10;;;;;;;5.80;100.00;100135.91;4818666;29;20133;-75
2023/09/23 05:29:23;;;;;;;0.00;0.00;;;;;;;5.91;100.00;100145.91;4829007;29;20033;-76
2023/09/23 05:31:52;;;;;;;0.00;0.00;;;;;;;5.99;100.00;100148.25;4839106;29;20041;-75
2023/09/23 05:34:21;;;;;;;0.00;0.00;;;;;;;6.01;100.00;100153.44;4828030;29;20050;-76
2023/09/23 05:36:47;;;;;;;0.10;0.10;;;;;;;5.92;100.00;100150.25;4815177;29;20048;-75
2023/09/23 05:39:18;;;;;;;0.10;0.10;;;;;;;5.97;100.00;100165.81;4823725;29;20034;-75
2023/09/23 05:41:43;;;;;;;0.00;0.00;;;;;;;5.96;100.00;100167.72;4816214;29;20044;-76
2023/09/23 05:44:09;;;;;;;0.00;0.00;;;;;;;5.93;100.00;100168.22;4841372;29;20029;-75
2023/09/23 05:46:37;;;;;;;0.00;0.00;;;;;;;5.90;100.00;100179.53;4805516;29;20034;-77
2023/09/23 05:49:05;;;;;;;0.00;0.00;;;;;;;5.91;100.00;100181.19;4827968;29;20034;-74
2023/09/23 05:51:32;;;;;;;0.00;0.00;;;;;;;5.97;100.00;100185.66;4841226;29;20112;-74
2023/09/23 05:53:59;;;;;;;0.00;0.00;;;;;;;6.02;100.00;100196.63;4810704;29;20930;-74
2023/09/23 05:56:24;;;;;;;0.10;0.10;;;;;;;5.91;100.00;100183.88;4822425;29;20026;-73
2023/09/23 05:58:50;;;;;;;0.00;0.00;;;;;;;6.02;100.00;100202.06;4822196;29;20492;-74
2023/09/23 06:01:15;;;;;;;0.00;0.00;;;;;;;6.06;100.00;100195.09;4828968;29;20022;-74
2023/09/23 06:03:41;;;;;;;0.00;0.00;;;;;;;6.08;100.00;100198.38;4835425;29;20037;-74
2023/09/23 06:06:11;;;;;;;0.00;0.00;;;;;;;6.13;100.00;100211.22;4839142;29;20041;-75
2023/09/23 06:08:43;;;;;;;0.00;0.00;;;;;;;6.14;100.00;100212.88;4833266;29;20098;-74
2023/09/23 06:11:14;;;;;;;0.05;0.05;;;;;;;6.13;100.00;100210.41;4816456;29;20029;-75
2023/09/23 06:13:40;;;;;;;0.00;0.00;;;;;;;6.20;100.00;100225.47;4827132;29;20041;-74
2023/09/23 06:16:06;;;;;;;0.00;0.00;;;;;;;6.21;100.00;100220.91;4839736;29;20767;-74
2023/09/23 06:18:34;;;;;;;0.00;0.00;;;;;;;6.28;100.00;100235.16;4826599;29;20077;-75
2023/09/23 06:21:01;;;;;;;0.00;0.00;;;;;;;6.31;100.00;100234.66;4825244;29;20026;-73
2023/09/23 06:23:27;;;;;;;0.05;0.05;;;;;;;6.37;100.00;100238.31;4836368;29;20032;-74
2023/09/23 06:25:58;;;;;;;0.00;0.00;;;;;;;6.36;100.00;100242.91;4840419;29;20041;-74
2023/09/23 06:28:23;;;;;;;0.10;0.10;;;;;;;6.42;100.00;100236.50;4835879;29;20037;-74
2023/09/23 06:30:49;;;;;;;0.00;0.00;;;;;;;6.48;100.00;100245.56;4823662;29;20029;-76
2023/09/23 06:33:15;;;;;;;0.00;0.00;;;;;;;6.56;100.00;100252.53;4822646;29;20034;-75
2023/09/23 06:35:43;;;;;;;0.00;0.00;;;;;;;6.62;100.00;100251.53;4836135;29;20047;-75
2023/09/23 06:38:09;;;;;;;0.00;0.00;;;;;;;6.69;100.00;100254.94;4824255;29;20025;-74
2023/09/23 06:40:35;;;;;;;0.10;0.10;;;;;;;6.76;100.00;100258.31;4825140;29;20464;-75
2023/09/23 06:43:03;;;;;;;0.10;0.10;;;;;;;6.82;100.00;100246.47;4828618;29;20041;-76
2023/09/23 06:45:29;;;;;;;0.10;0.10;;;;;;;6.92;100.00;100255.84;4817442;29;20037;-76
2023/09/23 06:47:55;;;;;;;0.00;0.00;;;;;;;7.00;100.00;100250.00;4836171;29;20037;-76
2023/09/23 06:50:20;;;;;;;0.00;0.00;;;;;;;7.06;100.00;100243.59;4814172;29;20120;-76
2023/09/23 06:52:45;;;;;;;0.00;0.00;;;;;;;7.20;100.00;100265.00;4810829;29;20106;-75
2023/09/23 06:55:11;;;;;;;0.00;0.00;;;;;;;7.26;100.00;100264.03;4809828;29;20044;-75
2023/09/23 06:57:36;;;;;;;0.00;0.00;;;;;;;7.33;100.00;100268.22;4817803;29;20134;-75
2023/09/23 07:00:06;;;;;;;0.10;0.10;;;;;;;7.37;100.00;100273.97;4810238;29;20038;-74
2023/09/23 07:02:31;;;;;;;0.00;0.00;;;;;;;7.44;100.00;100280.06;4825381;29;20053;-74
2023/09/23 07:04:57;;;;;;;0.00;0.00;;;;;;;7.47;100.00;100274.13;4820990;29;20077;-75
2023/09/23 07:07:22;;;;;;;0.00;0.00;;;;;;;7.54;100.00;100279.41;4810361;29;20030;-76
2023/09/23 07:09:48;;;;;;;0.00;0.00;;;;;;;7.57;100.00;100269.94;4822101;29;20553;-73
2023/09/23 07:12:14;;;;;;;0.00;0.00;;;;;;;7.58;100.00;100272.41;4804041;29;20417;-74
2023/09/23 07:14:40;;;;;;;0.00;0.00;;;;;;;7.62;100.00;100276.28;4811599;29;20045;-74
2023/09/23 07:17:06;;;;;;;0.00;0.00;;;;;;;7.69;100.00;100281.53;4825007;29;20105;-73
2023/09/23 07:19:32;;;;;;;0.00;0.00;;;;;;;7.76;100.00;100284.91;4836227;29;20077;-75
2023/09/23 07:21:58;;;;;;;0.10;0.10;;;;;;;7.78;100.00;100287.38;4825809;29;20119;-74
2023/09/23 07:24:26;;;;;;;0.00;0.00;;;;;;;7.83;100.00;100293.72;4827741;29;20034;-74
2023/09/23 07:26:57;;;;;;;0.00;0.00;;;;;;;7.91;100.00;100310.69;4818487;29;20029;-74
2023/09/23 07:29:24;;;;;;;0.10;0.10;;;;;;;7.97;100.00;100306.97;4837573;29;20033;-75
2023/09/23 07:31:50;;;;;;;0.00;0.00;;;;;;;8.09;100.00;100315.00;4828034;29;20397;-75
2023/09/23 07:34:16;;;;;;;0.10;0.10;;;;;;;8.25;100.00;100316.88;4808518;29;20073;-75
2023/09/23 07:36:49;;;;;;;0.00;0.00;;;;;;;8.37;100.00;100330.38;4826334;29;20092;-75
2023/09/23 07:39:15;;;;;;;0.00;0.00;;;;;;;8.40;100.00;100329.88;4840636;29;20049;-75
2023/09/23 07:41:41;;;;;;;0.00;0.00;;;;;;;8.39;100.00;100333.66;4830129;29;20033;-76
2023/09/23 07:44:06;;;;;;;0.00;0.00;;;;;;;8.46;100.00;100350.69;4811885;29;20641;-76
2023/09/23 07:46:36;;;;;;;0.00;0.00;;;;;;;8.65;100.00;100348.44;4824707;29;20034;-76
2023/09/23 07:49:06;;;;;;;0.10;0.10;;;;;;;9.40;100.00;100361.47;4814567;29;20033;-76
2023/09/23 07:51:42;;;;;;;;;;;;;;;;;;;;;
2023/09/23 07:54:07;;;;;;;0.10;0.10;;;;;;;10.84;100.00;100367.78;4847939;29;20025;-75
2023/09/23 07:56:37;;;;;;;0.00;0.00;;;;;;;11.51;100.00;100356.94;4833588;29;20053;-75
2023/09/23 07:59:03;;;;;;;0.00;0.00;;;;;;;12.12;100.00;100371.69;4834508;29;20095;-76
2023/09/23 08:01:29;;;;;;;0.03;0.03;;;;;;;12.90;100.00;100392.25;4822370;29;20067;-74
2023/09/23 08:03:54;;;;;;;0.10;0.10;;;;;;;13.30;100.00;100393.09;4827672;29;20411;-74
2023/09/23 08:06:20;;;;;;;0.00;0.00;;;;;;;13.65;100.00;100390.41;4810236;29;20082;-74
2023/09/23 08:08:45;;;;;;;0.00;0.00;;;;;;;14.10;100.00;100391.91;4815409;29;20484;-74
2023/09/23 08:11:11;;;;;;;0.00;0.00;;;;;;;14.67;100.00;100399.56;4829878;29;20038;-75
2023/09/23 08:13:36;;;;;;;0.10;0.10;;;;;;;15.18;100.00;100398.88;4812762;29;20030;-77
2023/09/23 08:16:03;;;;;;;0.00;0.00;;;;;;;16.00;100.00;100398.72;4812595;29;20065;-75
2023/09/23 08:18:36;;;;;;;0.00;0.00;;;;;;;16.61;100.00;100398.69;4819905;29;20034;-75
2023/09/23 08:21:06;;;;;;;0.00;0.00;;;;;;;17.57;100.00;100403.19;4818657;29;20033;-74
2023/09/23 08:23:31;;;;;;;0.05;0.05;;;;;;;18.56;95.44;100410.63;4818887;29;20124;-74
2023/09/23 08:25:59;;;;;;;0.00;0.00;;;;;;;19.18;91.60;100414.38;4851233;29;20112;-75
2023/09/23 08:28:33;;;;;;;0.00;0.00;;;;;;;19.82;90.35;100410.16;4819066;29;20106;-75
2023/09/23 08:31:00;;;;;;;0.00;0.00;;;;;;;20.57;85.69;100418.06;4829785;29;20036;-75
2023/09/23 08:33:27;;;;;;;0.00;0.00;;;;;;;21.24;83.72;100426.72;4828287;29;20045;-75
2023/09/23 08:35:53;;;;;;;0.00;0.00;;;;;;;21.65;81.78;100425.09;4833252;29;21508;-74
2023/09/23 08:38:26;;;;;;;0.00;0.00;;;;;;;22.16;80.00;100412.97;4845103;29;20165;-74
2023/09/23 08:41:07;;;;;;;0.00;0.00;;;;;;;22.86;76.92;100412.91;4840197;29;20049;-78
2023/09/23 12:24:50;;;;;;;0.00;0.00;;;;;;;35.68;52.55;100512.13;4863687;29;20056;-75
2023/09/23 12:27:16;;;;;;;0.00;0.00;;;;;;;37.50;49.59;100527.34;4848013;29;20519;-74
2023/09/23 12:29:41;;;;;;;0.00;0.00;;;;;;;39.43;43.62;100516.75;4814307;29;20045;-74
2023/09/23 12:32:07;;;;;;;0.00;0.00;;;;;;;41.07;36.97;100523.44;4862417;29;20037;-77
2023/09/23 12:34:35;;;;;;;0.00;0.00;;;;;;;39.70;42.02;100518.22;4842326;29;20405;-74
2023/09/23 12:37:00;;;;;;;0.00;0.00;;;;;;;36.09;44.56;100513.72;4864864;29;20065;-74
2023/09/23 12:39:25;;;;;;;0.00;0.00;;;;;;;33.05;44.84;100507.41;4845059;29;20056;-74
2023/09/23 12:41:51;;;;;;;0.00;0.00;;;;;;;35.70;57.37;100511.69;4857933;29;20094;-76
2023/09/23 12:44:17;;;;;;;0.00;0.00;;;;;;;39.29;51.62;100500.09;4839510;29;20388;-74
2023/09/23 12:46:43;;;;;;;0.00;0.00;;;;;;;42.14;43.84;100509.09;4844752;29;20064;-73
2023/09/23 12:49:09;;;;;;;0.00;0.00;;;;;;;44.41;43.16;100516.56;4861387;29;20059;-74
2023/09/23 12:51:37;;;;;;;0.00;0.00;;;;;;;44.29;41.81;100504.06;4862711;29;20043;-74
2023/09/23 12:54:03;;;;;;;0.00;0.00;;;;;;;41.75;37.33;100508.94;4854061;29;20033;-75
2023/09/23 12:56:28;;;;;;;0.00;0.00;;;;;;;37.64;50.56;100500.47;4864680;29;21217;-74
2023/09/23 12:58:54;;;;;;;0.00;0.00;;;;;;;36.26;47.91;100486.09;4841030;29;20100;-74
2023/09/23 13:01:19;;;;;;;0.00;0.00;;;;;;;36.36;51.71;100492.00;4862973;29;20041;-74
2023/09/23 13:03:48;;;;;;;0.00;0.00;;;;;;;35.80;44.40;100480.19;4869450;29;20029;-74
2023/09/23 13:06:13;;;;;;;0.00;0.00;;;;;;;33.04;51.57;100488.81;4842754;29;20033;-76
2023/09/23 13:08:49;;;;;;;0.00;0.00;;;;;;;30.73;53.20;100470.03;4862687;29;20029;-76
2023/09/23 13:11:27;;;;;;;;;;;;;;;;;;;;;
2023/09/23 13:13:55;;;;;;;0.00;0.00;;;;;;;30.03;63.26;100450.59;4870297;29;20803;-75
2023/09/23 13:16:33;;;;;;;0.00;0.00;;;;;;;31.31;68.09;100456.66;4863516;29;20037;-75
2023/09/23 13:19:03;;;;;;;0.00;0.00;;;;;;;35.65;60.77;100498.78;4864460;29;20089;-75
2023/09/23 13:21:29;;;;;;;0.00;0.00;;;;;;;37.07;51.92;100478.00;4848113;29;20451;-76
2023/09/23 13:23:55;;;;;;;0.00;0.00;;;;;;;36.33;53.97;100491.66;4854442;29;20157;-74
2023/09/23 13:26:22;;;;;;;0.00;0.00;;;;;;;37.61;47.30;100502.19;4846117;29;20132;-76
2023/09/23 13:28:48;;;;;;;0.00;0.00;;;;;;;36.56;48.58;100492.72;4850967;29;20128;-74
2023/09/23 13:31:13;;;;;;;0.00;0.00;;;;;;;35.19;44.62;100495.56;4834074;29;20459;-74
2023/09/23 13:33:42;;;;;;;0.00;0.00;;;;;;;37.29;45.16;100503.88;4842990;29;20620;-74
2023/09/23 13:36:55;;;;;;;0.00;0.00;;;;;;;38.53;50.66;100513.28;4840246;29;20068;-75
2023/09/23 13:55:06;;;;;;;0.00;0.00;;;;;;;25.25;72.46;100500.09;5492061;23;20423;-79
2023/09/23 13:57:32;;;;;;;0.00;0.00;;;;;;;26.87;75.29;100502.56;4837628;29;20047;-74
2023/09/23 14:00:29;;;;;;;0.00;0.00;;;;;;;28.40;68.63;100495.78;4855123;29;20029;-76
2023/09/23 14:03:12;;;;;;;0.00;0.00;;;;;;;27.56;68.87;100479.13;4851175;29;20033;-74
2023/09/23 14:05:42;;;;;;;0.00;0.00;;;;;;;27.76;69.76;100491.03;4858575;29;20041;-74
2023/09/23 14:08:12;;;;;;;0.00;0.00;;;;;;;27.45;63.92;100503.44;4865210;29;20037;-73
2023/09/23 14:10:39;;;;;;;0.00;0.00;;;;;;;27.40;65.80;100509.41;4848129;29;20433;-74
2023/09/23 14:13:04;;;;;;;0.00;0.00;;;;;;;27.97;67.81;100512.97;4834237;29;20033;-73
2023/09/23 14:15:32;;;;;;;0.00;0.00;;;;;;;28.86;62.36;100500.25;4828015;29;20108;-73
2023/09/23 14:18:07;;;;;;;0.00;0.00;;;;;;;28.02;53.85;100503.41;4843948;29;20037;-72
2023/09/23 14:20:34;;;;;;;0.00;0.00;;;;;;;27.06;63.07;100509.25;4832693;29;20116;-73
2023/09/23 14:23:02;;;;;;;0.00;0.00;;;;;;;28.68;63.81;100514.97;4841589;29;20578;-72
2023/09/23 14:25:27;;;;;;;0.00;0.00;;;;;;;28.13;60.70;100495.09;4857584;29;20037;-72
2023/09/23 14:27:53;;;;;;;0.00;0.00;;;;;;;27.42;63.72;100516.25;4844346;29;20494;-74
2023/09/23 14:30:20;;;;;;;0.00;0.00;;;;;;;28.38;63.95;100496.16;4856846;29;20473;-71
2023/09/23 14:32:46;;;;;;;0.00;0.00;;;;;;;32.32;57.52;100506.34;4857507;29;20473;-73
2023/09/23 14:35:11;;;;;;;0.00;0.00;;;;;;;32.97;47.69;100522.84;4856774;29;20104;-73
2023/09/23 14:37:38;;;;;;;0.00;0.00;;;;;;;30.37;56.16;100506.66;4865527;29;20072;-73
2023/09/23 14:40:04;;;;;;;0.00;0.00;;;;;;;29.31;45.58;100509.44;4846011;29;20037;-73
2023/09/23 14:42:29;;;;;;;0.00;0.00;;;;;;;27.40;63.29;100506.59;4838674;29;20026;-73
2023/09/23 14:44:55;;;;;;;0.00;0.00;;;;;;;26.61;65.37;100511.72;4846352;29;20479;-72
2023/09/23 14:47:20;;;;;;;0.00;0.00;;;;;;;25.07;64.49;100516.47;4852139;29;20388;-72
2023/09/23 14:49:47;;;;;;;0.00;0.00;;;;;;;23.66;70.15;100505.44;4845149;29;20032;-73
2023/09/23 14:52:12;;;;;;;0.00;0.00;;;;;;;22.81;79.33;100519.91;4855558;29;20037;-73
2023/09/23 14:54:38;;;;;;;0.00;0.00;;;;;;;22.93;82.79;100512.72;4843317;29;20057;-74
2023/09/23 14:57:03;;;;;;;0.00;0.00;;;;;;;23.20;74.24;100494.47;4814896;29;20021;-72
2023/09/23 14:59:32;;;;;;;0.00;0.00;;;;;;;23.89;76.78;100519.72;4854584;29;20129;-73
2023/09/23 15:02:02;;;;;;;0.00;0.00;;;;;;;24.03;74.14;100499.75;4833009;29;20406;-77
2023/09/23 15:04:28;;;;;;;0.00;0.00;;;;;;;23.67;72.96;100519.03;4843143;29;20034;-73
2023/09/23 15:06:59;;;;;;;0.00;0.00;;;;;;;23.03;74.00;100517.81;4857075;29;20032;-76
2023/09/23 15:09:32;;;;;;;0.00;0.00;;;;;;;22.18;75.69;100511.72;4850080;29;20044;-76
2023/09/23 15:12:18;;;;;;;0.00;0.00;;;;;;;21.23;71.59;100525.16;4838731;29;20029;-76
2023/09/23 15:14:43;;;;;;;0.00;0.00;;;;;;;20.61;74.35;100519.03;4852978;29;20061;-75
2023/09/23 15:17:11;;;;;;;0.00;0.00;;;;;;;20.02;75.20;100509.38;4867625;29;20056;-75
2023/09/23 15:19:39;;;;;;;0.00;0.00;;;;;;;20.12;78.72;100499.91;4834658;29;20037;-75
2023/09/23 15:22:10;;;;;;;0.00;0.00;;;;;;;20.11;78.30;100522.44;4837815;29;20603;-75
2023/09/23 15:24:38;;;;;;;0.00;0.00;;;;;;;19.71;75.85;100529.75;4859951;29;20121;-76
2023/09/23 15:27:04;;;;;;;0.00;0.00;;;;;;;19.43;80.00;100531.19;4851706;29;20096;-77
2023/09/23 15:29:29;;;;;;;0.00;0.00;;;;;;;19.59;83.26;100529.56;4852133;29;20025;-74
2023/09/23 15:31:54;;;;;;;0.00;0.00;;;;;;;20.14;82.12;100516.22;4849691;29;20037;-73